Time;durP1;ratioP1;P1;durP2;ratioP2;P2;SDS_P1;SDS_P2;PMS_P1;PMS_P2;Temp;Humidity;BMP_temperature;BMP_pressure;BME280_temperature;BME280_humidity;BME280_pressure;Samples;Min_cycle;Max_cycle;Signal;HPM_P1;HPM_P2
2024/03/31 00:01:08;;;;;;;31.93;14.73;;;16.80;99.90;;;;;;5018963;28;20194;-37
2024/03/31 00:03:38;;;;;;;17.43;12.60;;;16.70;99.90;;;;;;5020642;28;20708;-40
2024/03/31 00:06:04;;;;;;;22.23;13.80;;;16.70;99.90;;;;;;5017427;28;20186;-38
2024/03/31 00:08:29;;;;;;;22.03;13.97;;;16.70;99.90;;;;;;5020169;28;20503;-37
2024/03/31 00:11:00;;;;;;;26.57;13.87;;;16.70;99.90;;;;;;5020740;28;20256;-37
2024/03/31 00:13:27;;;;;;;25.43;14.10;;;16.70;99.90;;;;;;5020143;28;20530;-39
2024/03/31 00:15:53;;;;;;;25.27;14.80;;;16.70;99.90;;;;;;5020677;28;20453;-38
2024/03/31 00:18:18;;;;;;;29.43;14.40;;;16.70;99.90;;;;;;5020437;28;20552;-38
2024/03/31 00:20:44;;;;;;;22.00;12.70;;;16.70;99.90;;;;;;5020141;28;20190;-38
2024/03/31 00:23:09;;;;;;;30.97;13.77;;;16.70;99.90;;;;;;5019722;28;20951;-38
2024/03/31 00:25:35;;;;;;;19.47;13.40;;;16.70;99.90;;;;;;5020285;28;20185;-39
2024/03/31 00:28:01;;;;;;;26.67;13.70;;;16.70;99.90;;;;;;5020308;28;20189;-38
2024/03/31 00:30:26;;;;;;;22.37;14.00;;;16.70;99.90;;;;;;5020019;28;20186;-39
2024/03/31 00:32:52;;;;;;;21.27;13.10;;;16.60;99.90;;;;;;5020219;28;20253;-38
2024/03/31 00:35:17;;;;;;;24.50;12.53;;;16.60;99.90;;;;;;5020047;28;20193;-38
2024/03/31 00:37:43;;;;;;;22.50;13.30;;;16.60;99.90;;;;;;5020088;28;20986;-43
2024/03/31 00:40:09;;;;;;;26.30;14.50;;;16.60;99.90;;;;;;5019981;28;20202;-38
2024/03/31 00:42:34;;;;;;;24.57;13.80;;;16.50;99.90;;;;;;5019019;28;20187;-38
2024/03/31 00:45:00;;;;;;;15.83;12.90;;;16.40;99.90;;;;;;5020245;28;20186;-41
2024/03/31 00:47:26;;;;;;;26.23;14.67;;;16.40;99.90;;;;;;5020240;28;20257;-38
2024/03/31 00:49:52;;;;;;;28.53;14.17;;;16.30;99.90;;;;;;5019928;28;20183;-38
2024/03/31 00:52:18;;;;;;;26.23;13.50;;;16.30;99.90;;;;;;5020496;28;20428;-38
2024/03/31 00:54:43;;;;;;;19.50;12.67;;;16.30;99.90;;;;;;5020048;28;20187;-38
2024/03/31 00:57:10;;;;;;;18.47;13.30;;;16.20;99.90;;;;;;5023804;28;20214;-38
2024/03/31 00:59:36;;;;;;;22.90;13.77;;;16.20;99.90;;;;;;5022880;28;20475;-39
2024/03/31 01:02:01;;;;;;;24.70;14.00;;;16.10;99.90;;;;;;5023747;28;20420;-42
2024/03/31 01:04:27;;;;;;;19.40;13.17;;;16.10;99.90;;;;;;5024019;28;20467;-38
2024/03/31 01:06:53;;;;;;;26.30;13.33;;;16.10;99.90;;;;;;5023400;28;20237;-46
2024/03/31 01:09:18;;;;;;;22.37;13.50;;;16.00;99.90;;;;;;5022580;28;20183;-52
2024/03/31 01:11:45;;;;;;;26.10;15.13;;;15.90;99.90;;;;;;5023067;28;20248;-50
2024/03/31 01:14:12;;;;;;;26.10;13.40;;;15.90;99.90;;;;;;5023341;28;20183;-50
2024/03/31 01:16:38;;;;;;;30.17;13.87;;;15.90;99.90;;;;;;5023578;28;20425;-49
2024/03/31 01:19:04;;;;;;;22.70;13.33;;;15.80;99.90;;;;;;5020244;28;20484;-47
2024/03/31 01:21:33;;;;;;;18.97;13.70;;;15.80;99.90;;;;;;5023656;28;20194;-48
2024/03/31 01:24:02;;;;;;;23.17;13.50;;;15.80;99.90;;;;;;5022823;28;20561;-48
2024/03/31 01:26:28;;;;;;;26.00;13.63;;;15.80;99.90;;;;;;5022206;28;20435;-51
2024/03/31 01:28:54;;;;;;;24.47;12.73;;;15.70;99.90;;;;;;5022993;28;20420;-51
2024/03/31 01:31:20;;;;;;;23.47;14.73;;;15.70;99.90;;;;;;5023749;28;20210;-53
2024/03/31 01:33:46;;;;;;;25.43;13.50;;;15.70;99.90;;;;;;5023266;28;20186;-47
2024/03/31 01:36:12;;;;;;;28.20;13.37;;;15.70;99.90;;;;;;5023306;28;20431;-52
2024/03/31 01:38:38;;;;;;;22.63;13.80;;;15.60;99.90;;;;;;5022481;28;20755;-38
2024/03/31 01:41:04;;;;;;;23.30;13.70;;;15.60;99.90;;;;;;5023375;28;20504;-39
2024/03/31 01:43:30;;;;;;;32.80;14.10;;;15.60;99.90;;;;;;5022631;28;20268;-38
2024/03/31 01:45:55;;;;;;;26.80;14.30;;;15.60;99.90;;;;;;5023297;28;20183;-37
2024/03/31 01:48:21;;;;;;;26.07;13.70;;;15.50;99.90;;;;;;5022602;28;20232;-53
2024/03/31 01:50:47;;;;;;;18.83;12.90;;;15.40;99.90;;;;;;5022912;28;20237;-51
2024/03/31 01:53:12;;;;;;;21.83;12.63;;;15.30;99.90;;;;;;5023749;28;21043;-48
2024/03/31 01:55:38;;;;;;;26.40;13.83;;;15.20;99.90;;;;;;5022181;28;20217;-49
2024/03/31 01:58:04;;;;;;;22.47;14.10;;;15.10;99.90;;;;;;5022758;28;20194;-48
2024/03/31 02:00:30;;;;;;;22.53;13.60;;;15.00;99.90;;;;;;5022599;28;20182;-52
2024/03/31 02:02:55;;;;;;;30.03;13.47;;;14.90;99.90;;;;;;5022931;28;20206;-44
2024/03/31 02:05:22;;;;;;;23.93;13.47;;;14.80;99.90;;;;;;5022321;28;20187;-45
2024/03/31 02:07:48;;;;;;;27.50;15.20;;;14.70;99.90;;;;;;5022125;28;20653;-49
2024/03/31 02:10:14;;;;;;;25.33;13.90;;;14.70;99.90;;;;;;5022477;28;20886;-52
2024/03/31 02:12:40;;;;;;;27.40;14.80;;;14.70;99.90;;;;;;5022505;28;20504;-50
2024/03/31 02:18:08;;;;;;;23.73;13.83;;;14.60;99.90;;;;;;5022038;28;20292;-48
2024/03/31 02:20:33;;;;;;;24.70;13.77;;;14.60;99.90;;;;;;5022609;28;20445;-47
2024/03/31 02:22:59;;;;;;;25.40;14.60;;;14.50;99.90;;;;;;5022493;28;20206;-50
2024/03/31 02:25:24;;;;;;;20.00;13.23;;;14.50;99.90;;;;;;5021727;28;21007;-48
2024/03/31 02:27:50;;;;;;;25.90;14.57;;;14.60;99.90;;;;;;5022283;28;20174;-46
2024/03/31 02:30:15;;;;;;;26.70;14.50;;;14.60;99.90;;;;;;5021836;28;20252;-48
2024/03/31 02:32:41;;;;;;;31.30;13.60;;;14.50;99.90;;;;;;5022023;28;20179;-52
2024/03/31 02:35:07;;;;;;;25.13;13.50;;;14.50;99.90;;;;;;5022120;28;20187;-50
2024/03/31 02:37:32;;;;;;;25.57;14.20;;;14.50;99.90;;;;;;5022407;28;20183;-51
2024/03/31 02:39:58;;;;;;;21.20;14.17;;;14.40;99.90;;;;;;5021669;28;20202;-45
2024/03/31 02:42:23;;;;;;;26.00;14.53;;;14.40;99.90;;;;;;5022416;28;20206;-47
2024/03/31 02:44:49;;;;;;;26.73;13.93;;;14.40;99.90;;;;;;5021888;28;20233;-50
2024/03/31 02:47:15;;;;;;;21.53;13.90;;;14.30;99.90;;;;;;5021779;28;20244;-49
2024/03/31 02:49:41;;;;;;;23.10;13.70;;;14.30;99.90;;;;;;5021596;28;20178;-52
2024/03/31 02:52:06;;;;;;;28.00;13.93;;;14.30;99.90;;;;;;5021573;28;20217;-48
2024/03/31 02:54:32;;;;;;;28.27;14.17;;;14.20;99.90;;;;;;5021625;28;21029;-53
2024/03/31 02:56:57;;;;;;;29.53;14.00;;;14.20;99.90;;;;;;5021433;28;20265;-48
2024/03/31 02:59:23;;;;;;;24.17;13.43;;;14.20;99.90;;;;;;5021729;28;20261;-48
2024/03/31 03:01:49;;;;;;;24.77;13.97;;;14.20;99.90;;;;;;5021905;28;20198;-48
2024/03/31 03:04:14;;;;;;;17.53;13.30;;;14.20;99.90;;;;;;5021578;28;20629;-44
2024/03/31 03:06:40;;;;;;;27.90;14.10;;;14.20;99.90;;;;;;5022101;28;20268;-48
2024/03/31 03:09:05;;;;;;;34.43;14.67;;;14.20;99.90;;;;;;5021242;28;20185;-50
2024/03/31 03:11:31;;;;;;;18.27;13.37;;;14.20;99.90;;;;;;5021340;28;20174;-51
2024/03/31 03:13:57;;;;;;;34.23;15.00;;;14.20;99.90;;;;;;5022289;28;20194;-53
2024/03/31 03:16:22;;;;;;;30.30;13.50;;;14.20;99.90;;;;;;5021047;28;20205;-51
2024/03/31 03:18:51;;;;;;;21.20;13.13;;;14.20;99.90;;;;;;5019514;28;20951;-50
2024/03/31 03:21:16;;;;;;;26.83;13.57;;;14.20;99.90;;;;;;5020980;28;20197;-51
2024/03/31 03:23:42;;;;;;;28.23;14.13;;;14.30;99.90;;;;;;5020282;28;20453;-53
2024/03/31 03:26:07;;;;;;;27.07;13.80;;;14.30;99.90;;;;;;5020429;28;20222;-52
2024/03/31 03:28:33;;;;;;;36.40;13.60;;;14.30;99.90;;;;;;5021129;28;20225;-51
2024/03/31 03:31:01;;;;;;;24.20;13.73;;;14.30;99.90;;;;;;5021128;28;20190;-51
2024/03/31 03:33:27;;;;;;;25.07;14.00;;;14.40;99.90;;;;;;5021157;28;20193;-50
2024/03/31 03:35:53;;;;;;;23.23;14.00;;;14.40;99.90;;;;;;5020510;28;20421;-52
2024/03/31 03:38:18;;;;;;;26.90;13.70;;;14.50;99.90;;;;;;5020572;28;20537;-49
2024/03/31 03:40:44;;;;;;;32.93;14.13;;;14.50;99.90;;;;;;5020814;28;20182;-47
2024/03/31 03:43:09;;;;;;;28.83;13.70;;;14.50;99.90;;;;;;5020983;28;20206;-47
2024/03/31 03:45:35;;;;;;;26.50;14.03;;;14.50;99.90;;;;;;5020671;28;20592;-50
2024/03/31 03:48:01;;;;;;;22.33;13.13;;;14.50;99.90;;;;;;5021336;28;20286;-46
2024/03/31 03:50:26;;;;;;;18.17;14.07;;;14.50;99.90;;;;;;5020799;28;20615;-52
2024/03/31 03:52:53;;;;;;;19.17;12.97;;;14.50;99.90;;;;;;5020533;28;20206;-50
2024/03/31 03:55:18;;;;;;;23.30;13.40;;;14.50;99.90;;;;;;5019932;28;20270;-53
2024/03/31 03:57:44;;;;;;;21.00;13.17;;;14.50;99.90;;;;;;5020795;28;20413;-48
2024/03/31 04:00:10;;;;;;;25.97;13.30;;;14.50;99.90;;;;;;5020635;28;20886;-51
2024/03/31 04:02:36;;;;;;;24.13;14.90;;;14.50;99.90;;;;;;5020375;28;20189;-49
2024/03/31 04:05:01;;;;;;;22.10;12.77;;;14.50;99.90;;;;;;5020544;28;20421;-53
2024/03/31 04:07:27;;;;;;;23.23;13.40;;;14.50;99.90;;;;;;5020606;28;20293;-45
2024/03/31 04:09:52;;;;;;;29.17;14.10;;;14.50;99.90;;;;;;5020667;28;20667;-52
2024/03/31 04:12:18;;;;;;;32.50;14.03;;;14.50;99.90;;;;;;5020314;28;20186;-52
2024/03/31 04:14:44;;;;;;;26.17;13.70;;;14.50;99.90;;;;;;5019587;28;20273;-48
2024/03/31 04:17:09;;;;;;;32.93;14.10;;;14.50;99.90;;;;;;5020313;28;20193;-49
2024/03/31 04:19:35;;;;;;;19.70;13.00;;;14.50;99.90;;;;;;5020309;28;20276;-50
2024/03/31 04:22:00;;;;;;;19.93;13.07;;;14.50;99.90;;;;;;5020463;28;20252;-46
2024/03/31 04:24:26;;;;;;;20.57;12.20;;;14.50;99.90;;;;;;5020914;28;20222;-49
2024/03/31 04:26:51;;;;;;;22.67;12.77;;;14.50;99.90;;;;;;5020631;28;20996;-46
2024/03/31 04:29:17;;;;;;;23.13;14.23;;;14.50;99.90;;;;;;5020047;28;20191;-47
2024/03/31 04:31:54;;;;;;;22.73;13.10;;;14.50;99.90;;;;;;5024472;28;20182;-49
2024/03/31 04:34:20;;;;;;;19.73;12.80;;;14.50;99.90;;;;;;5023987;28;20545;-48
2024/03/31 04:36:48;;;;;;;24.87;13.10;;;14.60;99.90;;;;;;5024441;28;20420;-48
2024/03/31 04:39:13;;;;;;;28.50;13.77;;;14.50;99.90;;;;;;5024827;28;20429;-51
2024/03/31 04:41:39;;;;;;;28.10;12.60;;;14.50;99.90;;;;;;5024102;28;20464;-49
2024/03/31 04:44:05;;;;;;;25.17;13.47;;;14.50;99.90;;;;;;5022475;28;20217;-38
2024/03/31 04:46:30;;;;;;;23.63;13.10;;;14.50;99.90;;;;;;5022975;28;20421;-38
2024/03/31 04:48:56;;;;;;;28.10;13.27;;;14.50;99.90;;;;;;5022476;28;20187;-37
2024/03/31 04:51:21;;;;;;;29.67;12.80;;;14.40;99.90;;;;;;5024315;28;20727;-37
2024/03/31 04:53:47;;;;;;;32.73;14.40;;;14.40;99.90;;;;;;5024126;28;20956;-49
2024/03/31 04:56:12;;;;;;;27.23;12.50;;;14.40;99.90;;;;;;5024524;28;20234;-50
2024/03/31 04:58:38;;;;;;;19.07;12.00;;;14.40;99.90;;;;;;5024137;28;20198;-47
2024/03/31 05:01:04;;;;;;;22.93;13.33;;;14.20;99.90;;;;;;5020969;28;20696;-49
2024/03/31 05:03:30;;;;;;;29.67;13.10;;;14.10;99.90;;;;;;5022482;28;20457;-50
2024/03/31 05:05:55;;;;;;;23.87;12.03;;;14.00;99.90;;;;;;5023583;28;20285;-45
2024/03/31 05:08:21;;;;;;;20.60;12.63;;;14.00;99.90;;;;;;5023557;28;20217;-50
2024/03/31 05:11:13;;;;;;;20.23;13.10;;;13.90;99.90;;;;;;5023704;28;20217;-50
2024/03/31 05:13:38;;;;;;;26.90;12.60;;;13.90;99.90;;;;;;5022882;28;20330;-52
2024/03/31 05:16:08;;;;;;;20.50;12.27;;;13.80;99.90;;;;;;5022497;28;20461;-44
2024/03/31 05:18:33;;;;;;;21.80;13.70;;;13.80;99.90;;;;;;5022525;28;20618;-49
2024/03/31 05:21:03;;;;;;;20.17;13.50;;;13.80;99.90;;;;;;5023558;28;20416;-49
2024/03/31 05:23:29;;;;;;;28.10;13.17;;;13.80;99.90;;;;;;5023214;28;20263;-48
2024/03/31 05:25:59;;;;;;;21.53;15.10;;;13.70;99.90;;;;;;5023037;28;20421;-50
2024/03/31 05:28:25;;;;;;;26.90;16.63;;;13.60;99.90;;;;;;5022368;28;20421;-46
2024/03/31 05:30:51;;;;;;;23.93;14.60;;;13.60;99.90;;;;;;5023092;28;20417;-47
2024/03/31 05:33:17;;;;;;;21.93;13.43;;;13.50;99.90;;;;;;5024073;28;20703;-47
2024/03/31 05:35:44;;;;;;;22.50;15.97;;;13.40;99.90;;;;;;5023024;28;20178;-46
2024/03/31 05:38:11;;;;;;;28.80;19.73;;;13.40;99.90;;;;;;5022980;28;20187;-48
2024/03/31 05:40:38;;;;;;;32.67;21.40;;;13.30;99.90;;;;;;5022604;28;20491;-49
2024/03/31 05:43:04;;;;;;;33.13;19.13;;;13.20;99.90;;;;;;5023443;28;20975;-50
2024/03/31 05:45:29;;;;;;;30.63;18.70;;;13.10;99.90;;;;;;5022228;28;20507;-50
2024/03/31 05:47:55;;;;;;;27.37;15.80;;;13.10;99.90;;;;;;5022409;28;20871;-49
2024/03/31 05:50:21;;;;;;;25.27;14.30;;;13.00;99.90;;;;;;5022248;28;20179;-49
2024/03/31 05:52:47;;;;;;;22.00;13.97;;;13.10;99.90;;;;;;5023196;28;20190;-51
2024/03/31 05:55:13;;;;;;;24.37;13.07;;;13.00;99.90;;;;;;5023019;28;20166;-52
2024/03/31 05:57:38;;;;;;;30.40;14.13;;;13.00;99.90;;;;;;5022762;28;20745;-51
2024/03/31 06:00:05;;;;;;;26.97;15.33;;;13.00;99.90;;;;;;5021133;28;20197;-48
2024/03/31 06:02:30;;;;;;;24.83;13.20;;;13.10;99.90;;;;;;5021952;28;20182;-44
2024/03/31 06:04:58;;;;;;;29.33;14.80;;;13.10;99.90;;;;;;5021657;28;20461;-46
2024/03/31 06:07:24;;;;;;;25.00;13.50;;;13.10;99.90;;;;;;5022196;28;20529;-52
2024/03/31 06:09:50;;;;;;;22.43;14.63;;;13.20;99.90;;;;;;5022720;28;20421;-47
2024/03/31 06:12:15;;;;;;;26.23;13.40;;;13.20;99.90;;;;;;5022959;28;20412;-50
2024/03/31 06:14:41;;;;;;;26.90;13.70;;;13.20;99.90;;;;;;5022513;28;20186;-52
2024/03/31 06:17:07;;;;;;;26.83;14.37;;;13.30;99.90;;;;;;5022817;28;20199;-52
2024/03/31 06:19:32;;;;;;;25.13;14.20;;;13.40;99.90;;;;;;5022697;28;20234;-50
2024/03/31 06:21:58;;;;;;;28.50;14.80;;;13.50;99.90;;;;;;5022315;28;20186;-50
2024/03/31 06:24:23;;;;;;;26.63;14.40;;;13.60;99.90;;;;;;5022624;28;20201;-48
2024/03/31 06:26:49;;;;;;;30.67;15.20;;;13.60;99.90;;;;;;5022703;28;20185;-50
2024/03/31 06:29:14;;;;;;;20.77;14.10;;;13.70;99.90;;;;;;5022377;28;20197;-52
2024/03/31 06:31:40;;;;;;;25.80;14.10;;;13.80;99.90;;;;;;5022408;28;20529;-49
2024/03/31 06:34:06;;;;;;;28.93;14.30;;;13.90;99.90;;;;;;5022272;28;20187;-49
2024/03/31 06:36:31;;;;;;;26.63;14.20;;;13.90;99.90;;;;;;5021843;28;20190;-50
2024/03/31 06:38:57;;;;;;;27.93;14.80;;;13.90;99.90;;;;;;5021806;28;20700;-46
2024/03/31 06:41:23;;;;;;;25.83;13.90;;;14.00;99.90;;;;;;5022561;28;20191;-49
2024/03/31 06:43:48;;;;;;;20.13;14.30;;;14.00;99.90;;;;;;5022002;28;20672;-52
2024/03/31 06:46:14;;;;;;;21.33;14.90;;;14.10;99.90;;;;;;5022479;28;20185;-52
2024/03/31 06:48:39;;;;;;;24.17;12.60;;;14.20;99.90;;;;;;5022141;28;21306;-47
2024/03/31 06:51:05;;;;;;;28.90;14.70;;;14.20;99.90;;;;;;5020634;28;20186;-51
2024/03/31 06:53:31;;;;;;;37.43;14.90;;;14.20;99.90;;;;;;5020989;28;20633;-50
2024/03/31 06:55:56;;;;;;;26.30;14.50;;;14.30;99.90;;;;;;5022782;28;20190;-45
2024/03/31 06:58:22;;;;;;;25.83;13.50;;;14.50;99.90;;;;;;5021176;28;20196;-49
2024/03/31 07:00:47;;;;;;;32.27;14.50;;;14.60;99.90;;;;;;5021492;28;20272;-47
2024/03/31 07:03:13;;;;;;;29.27;14.27;;;14.80;99.90;;;;;;5020437;28;20206;-52
2024/03/31 07:05:39;;;;;;;26.13;13.70;;;15.00;99.90;;;;;;5020624;28;20249;-49
2024/03/31 07:08:05;;;;;;;17.03;13.77;;;15.20;99.90;;;;;;5019949;28;20183;-47
2024/03/31 07:10:30;;;;;;;22.47;13.40;;;15.50;99.90;;;;;;5020285;28;20186;-52
2024/03/31 07:12:56;;;;;;;19.70;13.30;;;15.50;99.90;;;;;;5020092;28;20732;-50
2024/03/31 07:15:22;;;;;;;25.70;14.60;;;15.70;99.90;;;;;;5021568;28;20174;-48
2024/03/31 07:17:48;;;;;;;27.63;14.50;;;15.80;99.90;;;;;;5020491;28;20325;-50
2024/03/31 07:20:14;;;;;;;30.30;13.80;;;15.90;99.90;;;;;;5020427;28;20637;-49
2024/03/31 07:22:40;;;;;;;27.73;14.03;;;15.90;99.90;;;;;;5020067;28;20421;-53
2024/03/31 07:25:06;;;;;;;25.43;13.73;;;16.10;99.90;;;;;;5019875;28;20523;-46
2024/03/31 07:27:31;;;;;;;27.47;13.40;;;16.20;99.90;;;;;;5020140;28;20535;-50
2024/03/31 07:29:57;;;;;;;20.90;13.60;;;16.40;99.90;;;;;;5021404;28;20281;-53
2024/03/31 07:32:23;;;;;;;30.67;13.10;;;16.60;99.90;;;;;;5021318;28;20178;-48
2024/03/31 07:34:48;;;;;;;28.20;13.03;;;16.80;99.90;;;;;;5021066;28;20756;-42
2024/03/31 07:37:14;;;;;;;24.20;13.33;;;16.90;99.90;;;;;;5020620;28;20240;-39
2024/03/31 07:39:39;;;;;;;29.50;14.70;;;17.10;99.90;;;;;;5019109;28;20187;-38
2024/03/31 07:42:05;;;;;;;28.80;13.80;;;17.20;99.90;;;;;;5035666;28;20214;-37
2024/03/31 07:44:31;;;;;;;20.50;13.57;;;17.10;99.90;;;;;;5019937;28;20206;-38
2024/03/31 07:46:56;;;;;;;24.30;13.23;;;17.00;99.90;;;;;;5020200;28;20292;-37
2024/03/31 07:49:22;;;;;;;28.70;13.67;;;17.00;99.90;;;;;;5019960;28;20186;-44
2024/03/31 07:51:47;;;;;;;22.03;13.60;;;16.80;99.90;;;;;;5002725;28;20297;-43
2024/03/31 07:54:13;;;;;;;25.63;14.07;;;16.50;99.90;;;;;;5019750;28;20186;-37
2024/03/31 07:56:38;;;;;;;29.23;12.97;;;16.30;99.90;;;;;;5020342;28;20236;-39
2024/03/31 07:59:04;;;;;;;25.83;14.90;;;16.10;99.90;;;;;;5019913;28;20680;-37
2024/03/31 08:01:30;;;;;;;22.03;12.83;;;16.00;99.90;;;;;;5019394;28;20190;-40
2024/03/31 08:03:55;;;;;;;22.97;12.70;;;16.00;99.90;;;;;;5014569;28;20210;-40
2024/03/31 08:06:21;;;;;;;24.80;13.50;;;16.20;99.90;;;;;;5017860;28;20197;-38
2024/03/31 08:08:47;;;;;;;23.67;12.67;;;16.40;99.90;;;;;;5016583;28;20191;-37
2024/03/31 08:11:12;;;;;;;19.40;13.43;;;16.60;99.90;;;;;;5019182;28;20420;-37
2024/03/31 08:13:38;;;;;;;30.20;14.50;;;16.80;99.90;;;;;;5018606;28;20571;-37
2024/03/31 08:16:04;;;;;;;20.27;13.47;;;17.10;99.90;;;;;;5019410;28;20203;-39
2024/03/31 08:18:29;;;;;;;26.40;13.50;;;17.50;99.90;;;;;;5015518;28;20230;-38
2024/03/31 08:20:55;;;;;;;26.33;14.40;;;17.90;99.90;;;;;;5019463;28;20429;-39
2024/03/31 08:23:21;;;;;;;26.50;15.60;;;18.20;99.90;;;;;;5018786;28;20765;-38
2024/03/31 08:25:52;;;;;;;35.83;15.80;;;18.30;99.90;;;;;;5019347;28;20521;-38
2024/03/31 08:28:18;;;;;;;28.63;15.30;;;18.50;99.90;;;;;;5034110;28;20268;-39
2024/03/31 08:30:46;;;;;;;28.00;15.80;;;18.80;99.90;;;;;;5019947;28;20413;-37
2024/03/31 08:33:12;;;;;;;27.17;18.03;;;19.00;99.90;;;;;;5019604;28;20197;-38
2024/03/31 08:35:38;;;;;;;39.00;16.70;;;19.20;99.90;;;;;;5020582;28;20436;-39
2024/03/31 08:38:04;;;;;;;22.27;18.13;;;19.40;99.90;;;;;;5019349;28;21127;-38
2024/03/31 08:40:32;;;;;;;28.57;17.50;;;19.80;99.90;;;;;;5018879;28;20282;-40
2024/03/31 08:43:07;;;;;;;26.77;17.43;;;20.20;99.90;;;;;;5018131;28;20513;-39
2024/03/31 08:45:34;;;;;;;26.87;17.17;;;20.50;99.90;;;;;;5014706;28;20440;-38
2024/03/31 08:48:00;;;;;;;24.23;15.73;;;20.60;99.90;;;;;;5017975;28;20429;-38
2024/03/31 08:50:26;;;;;;;23.83;16.63;;;20.70;99.90;;;;;;5019228;28;20417;-40
2024/03/31 08:52:52;;;;;;;27.80;17.17;;;20.90;99.90;;;;;;5019074;28;20492;-42
2024/03/31 08:55:18;;;;;;;31.73;18.37;;;21.20;99.90;;;;;;5018101;28;20433;-42
2024/03/31 08:57:46;;;;;;;37.37;17.07;;;21.50;99.90;;;;;;5018229;28;20425;-42
2024/03/31 09:00:12;;;;;;;33.33;18.87;;;22.20;99.90;;;;;;5018082;28;20421;-41
2024/03/31 09:02:38;;;;;;;30.13;18.40;;;22.40;99.90;;;;;;5018173;28;20427;-38
2024/03/31 09:05:04;;;;;;;33.67;18.53;;;22.60;99.90;;;;;;5018185;28;20469;-41
2024/03/31 09:07:31;;;;;;;22.13;16.70;;;23.20;99.90;;;;;;5017477;28;21038;-41
2024/03/31 09:09:57;;;;;;;26.07;17.03;;;23.50;99.90;;;;;;5018650;28;20496;-41
2024/03/31 09:12:23;;;;;;;24.13;16.87;;;23.60;99.90;;;;;;5017965;28;20520;-41
2024/03/31 09:14:49;;;;;;;33.63;18.53;;;24.10;99.90;;;;;;5017885;28;20433;-38
2024/03/31 09:17:14;;;;;;;29.87;17.90;;;24.40;99.90;;;;;;5021689;28;20660;-39
2024/03/31 09:19:40;;;;;;;28.03;16.60;;;25.00;99.90;;;;;;5021126;28;20281;-43
2024/03/31 09:22:07;;;;;;;30.83;17.60;;;25.30;99.90;;;;;;5021877;28;20174;-43
2024/03/31 09:24:33;;;;;;;30.03;16.33;;;25.40;99.90;;;;;;5021848;28;20241;-40
2024/03/31 09:26:59;;;;;;;28.93;17.30;;;25.60;99.90;;;;;;5018293;28;21159;-40
2024/03/31 09:29:26;;;;;;;23.50;16.63;;;25.70;99.90;;;;;;5021620;28;20451;-40
2024/03/31 09:32:04;;;;;;;25.13;15.70;;;26.20;99.90;;;;;;5018429;28;20521;-39
2024/03/31 09:34:30;;;;;;;27.83;17.03;;;26.30;99.90;;;;;;5018672;28;20440;-39
2024/03/31 09:36:56;;;;;;;34.07;17.60;;;26.60;99.90;;;;;;5021576;28;20421;-40
2024/03/31 09:39:21;;;;;;;29.37;16.50;;;26.90;99.90;;;;;;5021339;28;20194;-42
2024/03/31 09:41:49;;;;;;;30.73;17.47;;;27.40;99.90;;;;;;5021485;28;20200;-41
2024/03/31 09:44:15;;;;;;;27.80;16.40;;;27.30;99.90;;;;;;5021412;28;21254;-51
2024/03/31 09:46:41;;;;;;;34.57;17.30;;;27.50;99.90;;;;;;5022203;28;20436;-49
2024/03/31 09:49:10;;;;;;;33.03;16.50;;;27.60;99.90;;;;;;5022465;28;20186;-49
2024/03/31 09:51:41;;;;;;;23.13;17.07;;;27.70;99.90;;;;;;5021541;28;20747;-49
2024/03/31 09:54:17;;;;;;;33.40;16.80;;;27.70;99.90;;;;;;5018324;28;20453;-47
2024/03/31 09:56:52;;;;;;;31.37;16.80;;;28.10;99.90;;;;;;5020961;28;20436;-47
2024/03/31 09:59:23;;;;;;;27.60;16.30;;;28.50;99.90;;;;;;5021313;28;20429;-46
2024/03/31 10:01:50;;;;;;;25.43;17.50;;;28.60;99.90;;;;;;5021244;28;20416;-52
2024/03/31 10:04:38;;;;;;;30.63;17.30;;;28.40;99.90;;;;;;5020694;28;20476;-52
2024/03/31 10:07:04;;;;;;;29.80;18.47;;;28.40;99.90;;;;;;5021566;28;21226;-51
2024/03/31 10:09:32;;;;;;;27.33;17.33;;;28.60;99.90;;;;;;5022621;28;20429;-49
2024/03/31 10:11:59;;;;;;;30.40;18.03;;;28.40;99.90;;;;;;5021237;28;20437;-48
2024/03/31 10:14:26;;;;;;;31.67;18.53;;;28.40;99.90;;;;;;5022729;28;20909;-54
2024/03/31 10:16:53;;;;;;;33.47;20.03;;;28.60;99.90;;;;;;5022334;28;20436;-48
2024/03/31 10:19:20;;;;;;;33.70;20.03;;;28.90;99.90;;;;;;5021749;28;20480;-45
2024/03/31 10:21:47;;;;;;;34.33;19.83;;;29.20;99.90;;;;;;5021800;28;20421;-51
2024/03/31 10:24:15;;;;;;;27.80;19.27;;;29.60;99.90;;;;;;5022193;28;20542;-52
2024/03/31 10:26:41;;;;;;;30.20;18.40;;;29.80;99.90;;;;;;5021977;28;21206;-47
2024/03/31 10:29:09;;;;;;;31.23;19.53;;;30.00;99.90;;;;;;5022141;28;20508;-46
2024/03/31 10:31:35;;;;;;;37.50;19.93;;;30.40;99.90;;;;;;5022970;28;20546;-46
2024/03/31 10:34:00;;;;;;;40.13;19.70;;;30.40;99.90;;;;;;5023400;28;20507;-45
2024/03/31 10:36:31;;;;;;;36.70;21.07;;;30.40;99.90;;;;;;5023044;28;20182;-47
2024/03/31 10:38:57;;;;;;;36.80;19.57;;;30.00;99.90;;;;;;5022870;28;20349;-49
2024/03/31 10:41:23;;;;;;;33.27;19.90;;;29.90;99.90;;;;;;5022262;28;20495;-49
2024/03/31 10:43:50;;;;;;;29.10;20.00;;;29.90;99.90;;;;;;5021495;28;20233;-50
2024/03/31 10:46:18;;;;;;;31.40;21.10;;;29.90;99.90;;;;;;5023186;28;20189;-47
2024/03/31 10:48:56;;;;;;;33.13;20.63;;;30.10;99.90;;;;;;5022865;28;20831;-47
2024/03/31 10:51:26;;;;;;;30.10;21.70;;;29.60;99.90;;;;;;5020201;28;20471;-47
2024/03/31 10:53:52;;;;;;;33.90;21.80;;;29.00;99.90;;;;;;5022891;28;20405;-48
2024/03/31 10:56:28;;;;;;;31.47;23.20;;;28.60;99.90;;;;;;5022693;28;20444;-52
2024/03/31 10:59:14;;;;;;;31.20;22.33;;;28.40;99.90;;;;;;5022614;28;20182;-47
2024/03/31 11:01:40;;;;;;;33.53;21.67;;;27.80;99.90;;;;;;5022705;28;20429;-51
2024/03/31 11:04:17;;;;;;;41.03;23.50;;;27.40;99.90;;;;;;5022608;28;20465;-49
2024/03/31 11:06:43;;;;;;;30.50;22.30;;;26.70;99.90;;;;;;5023251;28;20752;-50
2024/03/31 11:09:09;;;;;;;42.27;22.77;;;26.60;99.90;;;;;;5022644;28;20413;-49
2024/03/31 11:11:37;;;;;;;30.53;23.00;;;26.10;99.90;;;;;;5021475;28;20556;-47
2024/03/31 11:14:04;;;;;;;34.27;22.63;;;26.00;99.90;;;;;;5022683;28;20417;-48
2024/03/31 11:16:31;;;;;;;29.13;21.77;;;25.90;99.90;;;;;;5022558;28;20453;-50
2024/03/31 11:18:56;;;;;;;27.90;21.93;;;26.00;99.90;;;;;;5021799;28;20489;-49
2024/03/31 11:21:31;;;;;;;32.97;21.53;;;25.80;99.90;;;;;;5022451;28;20429;-44
2024/03/31 11:24:02;;;;;;;33.63;21.70;;;25.80;99.90;;;;;;5022163;28;20242;-47
2024/03/31 11:26:29;;;;;;;30.13;21.90;;;25.80;99.90;;;;;;5019911;28;20488;-49
2024/03/31 11:28:56;;;;;;;29.70;19.50;;;25.60;99.90;;;;;;5020778;28;20467;-49
2024/03/31 11:31:22;;;;;;;30.20;21.53;;;25.60;99.90;;;;;;5021306;28;20788;-46
2024/03/31 11:33:48;;;;;;;28.87;18.63;;;25.60;99.90;;;;;;5020812;28;20405;-50
2024/03/31 11:36:16;;;;;;;27.43;20.43;;;26.40;99.90;;;;;;5021022;28;20194;-47
2024/03/31 11:38:42;;;;;;;34.90;19.47;;;27.10;99.90;;;;;;5020302;28;20496;-50
2024/03/31 11:41:08;;;;;;;31.50;19.37;;;27.80;99.90;;;;;;5020219;28;20421;-47
2024/03/31 11:43:35;;;;;;;29.80;19.40;;;28.30;99.90;;;;;;5020475;28;21001;-51
2024/03/31 11:46:01;;;;;;;25.97;18.90;;;29.00;99.90;;;;;;5018610;28;20441;-49
2024/03/31 11:48:30;;;;;;;34.10;18.90;;;29.90;99.90;;;;;;5019344;28;20433;-51
2024/03/31 11:50:56;;;;;;;24.73;19.00;;;30.50;99.90;;;;;;5019023;28;20527;-53
2024/03/31 11:53:22;;;;;;;33.03;19.13;;;31.10;99.90;;;;;;5020004;28;20688;-54
2024/03/31 11:55:48;;;;;;;28.80;18.50;;;31.60;99.90;;;;;;5019716;28;20441;-47
2024/03/31 11:58:14;;;;;;;34.27;18.30;;;31.60;99.90;;;;;;5020505;28;20197;-51
2024/03/31 12:00:50;;;;;;;27.57;18.00;;;31.30;99.90;;;;;;5020859;28;21365;-49
2024/03/31 12:03:16;;;;;;;28.23;17.40;;;30.80;99.90;;;;;;5019592;28;20511;-46
2024/03/31 12:05:49;;;;;;;30.00;15.77;;;30.40;99.90;;;;;;5020480;28;20849;-40
2024/03/31 12:08:16;;;;;;;32.37;15.57;;;30.30;99.90;;;;;;5020438;28;20324;-40
2024/03/31 12:10:45;;;;;;;29.80;15.50;;;29.90;99.90;;;;;;5019716;28;20448;-40
2024/03/31 12:13:12;;;;;;;23.43;13.10;;;29.80;99.90;;;;;;5020081;28;20421;-39
2024/03/31 12:15:39;;;;;;;23.70;15.40;;;29.60;99.90;;;;;;5020415;28;21191;-40
2024/03/31 12:18:05;;;;;;;25.73;14.00;;;29.20;99.90;;;;;;5019325;28;20477;-41
2024/03/31 12:20:30;;;;;;;23.80;12.80;;;28.90;99.90;;;;;;5020195;28;20899;-45
2024/03/31 12:22:56;;;;;;;25.50;14.80;;;28.40;99.90;;;;;;5019375;28;21470;-42
2024/03/31 12:25:23;;;;;;;22.20;14.50;;;27.90;99.90;;;;;;5019580;28;20193;-41
2024/03/31 12:27:49;;;;;;;32.53;13.67;;;27.60;99.90;;;;;;5019788;28;20630;-42